createdAt,value
2019-01-24T00:01:53.122Z,84.43
2019-01-24T00:04:26.075Z,84.96
2019-01-24T00:06:59.085Z,84.99
2019-01-24T00:09:30.968Z,84.44
2019-01-24T00:12:04.186Z,84.70
2019-01-24T00:14:36.981Z,84.81
2019-01-24T00:17:08.361Z,85.11
2019-01-24T00:19:40.136Z,85.34
2019-01-24T00:22:13.163Z,85.31
2019-01-24T00:24:45.073Z,85.39
2019-01-24T00:27:18.158Z,85.35
2019-01-24T00:29:52.214Z,85.58
2019-01-24T00:32:26.139Z,85.62
2019-01-24T00:35:01.349Z,85.79
2019-01-24T00:37:34.117Z,85.66
2019-01-24T00:40:10.571Z,85.57
2019-01-24T00:42:43.181Z,85.51
2019-01-24T00:45:15.926Z,85.30
2019-01-24T00:47:49.163Z,85.06
2019-01-24T00:50:21.140Z,85.14
2019-01-24T00:52:55.259Z,85.49
2019-01-24T00:55:28.212Z,85.55
2019-01-24T00:58:00.196Z,85.85
2019-01-24T01:00:35.066Z,85.95
2019-01-24T01:03:08.005Z,85.71
2019-01-24T01:05:42.874Z,85.72
2019-01-24T01:08:15.710Z,86.07
2019-01-24T01:10:49.385Z,86.52
2019-01-24T01:13:22.198Z,86.31
2019-01-24T01:15:56.357Z,86.15
2019-01-24T01:18:31.110Z,86.34
2019-01-24T01:21:08.201Z,86.27
2019-01-24T01:23:43.035Z,86.26
2019-01-24T01:26:14.281Z,86.23
2019-01-24T01:28:46.405Z,86.23
2019-01-24T01:31:17.982Z,85.62
2019-01-24T01:33:53.073Z,85.23
2019-01-24T01:36:25.505Z,85.17
2019-01-24T01:38:59.521Z,85.38
2019-01-24T01:41:33.805Z,85.15
2019-01-24T01:44:07.163Z,85.18
2019-01-24T01:46:39.942Z,85.21
2019-01-24T01:49:13.287Z,85.35
2019-01-24T01:51:47.171Z,85.40
2019-01-24T01:54:21.276Z,85.10
2019-01-24T01:56:55.493Z,85.11
2019-01-24T01:59:28.255Z,85.27
2019-01-24T02:01:59.449Z,85.49
2019-01-24T02:04:34.470Z,85.52
2019-01-24T02:07:07.414Z,85.29
2019-01-24T02:09:40.781Z,85.19
2019-01-24T02:12:14.597Z,85.03
2019-01-24T02:14:50.176Z,85.47
2019-01-24T02:17:22.710Z,85.53
2019-01-24T02:19:58.155Z,84.55
2019-01-24T02:22:30.666Z,84.23
2019-01-24T02:25:05.888Z,84.36
2019-01-24T02:27:38.598Z,84.29
2019-01-24T02:30:23.662Z,84.37
2019-01-24T02:32:55.747Z,84.15
2019-01-24T02:35:29.655Z,84.08
2019-01-24T02:38:00.869Z,84.45
2019-01-24T02:40:36.339Z,84.74
2019-01-24T02:43:08.222Z,83.84
2019-01-24T02:45:39.677Z,84.10
2019-01-24T02:48:11.763Z,84.55
2019-01-24T02:50:44.980Z,84.49
2019-01-24T02:53:17.815Z,84.25
2019-01-24T02:55:49.104Z,83.98
2019-01-24T02:58:20.356Z,84.05
2019-01-24T03:00:51.876Z,84.57
2019-01-24T03:03:24.898Z,84.92
2019-01-24T03:05:58.874Z,84.78
2019-01-24T03:08:33.806Z,84.60
2019-01-24T03:11:09.430Z,84.65
2019-01-24T03:13:43.028Z,84.46
2019-01-24T03:16:14.961Z,84.56
2019-01-24T03:18:48.876Z,84.30
2019-01-24T03:21:22.984Z,84.09
2019-01-24T03:23:55.970Z,83.35
2019-01-24T03:26:27.216Z,83.51
2019-01-24T03:28:58.878Z,84.11
2019-01-24T03:31:31.982Z,84.22
2019-01-24T03:34:03.241Z,84.10
2019-01-24T03:36:34.495Z,84.39
2019-01-24T03:39:09.490Z,83.49
2019-01-24T03:41:41.873Z,83.02
2019-01-24T03:44:15.331Z,83.55
2019-01-24T03:46:47.021Z,83.88
2019-01-24T03:49:22.562Z,84.02
2019-01-24T03:51:54.761Z,84.69
2019-01-24T03:54:26.013Z,84.73
2019-01-24T03:56:57.201Z,84.31
2019-01-24T03:59:31.070Z,84.68
2019-01-24T04:02:03.860Z,84.69
2019-01-24T04:04:37.167Z,84.30
2019-01-24T04:07:08.519Z,84.47
2019-01-24T04:09:40.059Z,85.00
2019-01-24T04:12:11.990Z,85.08
2019-01-24T04:14:45.204Z,85.63
2019-01-24T04:17:18.985Z,85.85
2019-01-24T04:19:50.485Z,84.04
2019-01-24T04:22:21.710Z,84.06
2019-01-24T04:24:55.064Z,84.63
2019-01-24T04:27:28.738Z,84.68
2019-01-24T04:30:01.936Z,84.71
2019-01-24T04:32:35.027Z,84.63
2019-01-24T04:35:08.278Z,84.56
2019-01-24T04:37:43.761Z,84.32
2019-01-24T04:40:17.563Z,84.69
2019-01-24T04:42:52.360Z,85.11
2019-01-24T04:45:25.445Z,85.76
2019-01-24T04:47:59.371Z,85.79
2019-01-24T04:50:32.090Z,85.62
2019-01-24T04:53:03.547Z,85.49
2019-01-24T04:55:34.792Z,85.74
2019-01-24T04:58:10.024Z,85.89
2019-01-24T05:00:42.389Z,85.73
2019-01-24T05:03:16.247Z,85.46
2019-01-24T05:05:49.780Z,85.19
2019-01-24T05:08:21.832Z,85.08
2019-01-24T05:10:53.360Z,84.92
2019-01-24T05:13:26.460Z,84.91
2019-01-24T05:15:57.696Z,84.50
2019-01-24T05:18:31.414Z,84.35
2019-01-24T05:21:07.896Z,84.13
2019-01-24T05:23:41.516Z,84.04
2019-01-24T05:26:14.520Z,84.03
2019-01-24T05:28:48.571Z,84.11
2019-01-24T05:31:22.413Z,84.10
2019-01-24T05:33:57.965Z,83.95
2019-01-24T05:36:30.413Z,83.76
2019-01-24T05:39:08.327Z,83.86
2019-01-24T05:41:41.481Z,83.37
2019-01-24T05:44:12.700Z,83.58
2019-01-24T05:46:45.702Z,83.73
2019-01-24T05:49:18.051Z,83.88
2019-01-24T05:51:50.814Z,84.04
2019-01-24T05:54:24.736Z,84.13
2019-01-24T05:56:58.644Z,84.03
2019-01-24T05:59:29.864Z,83.89
2019-01-24T06:02:01.533Z,83.63
2019-01-24T06:04:35.805Z,83.80
2019-01-24T06:07:08.568Z,83.21
2019-01-24T06:09:43.578Z,83.01
2019-01-24T06:12:15.992Z,84.58
2019-01-24T06:14:47.571Z,85.54
2019-01-24T06:17:21.834Z,85.50
2019-01-24T06:19:54.692Z,85.79
2019-01-24T06:22:37.539Z,86.26
2019-01-24T06:25:09.194Z,86.93
2019-01-24T06:27:40.609Z,86.63
2019-01-24T06:30:15.164Z,86.79
2019-01-24T06:32:48.840Z,86.64
2019-01-24T06:36:05.160Z,86.45
2019-01-24T06:38:39.085Z,86.02
2019-01-24T06:41:11.801Z,85.49
2019-01-24T06:43:43.975Z,85.28
2019-01-24T06:46:17.808Z,85.07
2019-01-24T06:48:49.060Z,84.92
2019-01-24T06:51:20.419Z,84.83
2019-01-24T06:53:53.784Z,84.41
2019-01-24T06:56:25.017Z,84.43
2019-01-24T06:58:58.728Z,84.90
2019-01-24T07:01:30.803Z,84.81
2019-01-24T07:04:03.790Z,84.91
2019-01-24T07:06:39.286Z,84.63
2019-01-24T07:09:11.877Z,84.52
2019-01-24T07:11:45.956Z,84.50
2019-01-24T07:14:17.178Z,84.29
2019-01-24T07:16:50.791Z,84.13
2019-01-24T07:19:23.757Z,84.05
2019-01-24T07:21:57.912Z,84.08
2019-01-24T07:24:31.990Z,84.07
2019-01-24T07:27:03.266Z,83.83
2019-01-24T07:29:37.076Z,83.81
2019-01-24T07:32:08.779Z,83.83
2019-01-24T07:34:42.058Z,83.47
2019-01-24T07:37:14.956Z,83.32
2019-01-24T07:39:46.924Z,82.84
2019-01-24T07:42:21.164Z,82.89
2019-01-24T07:44:54.125Z,82.78
2019-01-24T07:47:25.635Z,82.75
2019-01-24T07:49:56.867Z,82.57
2019-01-24T07:52:30.021Z,82.30
2019-01-24T07:55:02.361Z,82.23
2019-01-24T07:57:35.065Z,82.86
2019-01-24T08:00:10.801Z,82.89
2019-01-24T08:02:43.480Z,83.13
2019-01-24T08:05:15.027Z,82.13
2019-01-24T08:07:48.256Z,82.64
2019-01-24T08:10:24.365Z,83.59
2019-01-24T08:12:57.770Z,83.15
2019-01-24T08:15:31.755Z,82.40
2019-01-24T08:18:04.845Z,82.51
2019-01-24T08:20:37.231Z,82.71
2019-01-24T08:23:09.042Z,82.96
2019-01-24T08:25:42.915Z,82.87
2019-01-24T08:28:15.459Z,82.56
2019-01-24T08:30:47.186Z,82.91
2019-01-24T08:33:21.217Z,82.97
2019-01-24T08:35:55.199Z,83.14
2019-01-24T08:38:29.226Z,83.40
2019-01-24T08:41:00.473Z,83.36
2019-01-24T08:53:04.259Z,82.77
2019-01-24T08:55:38.081Z,83.25
2019-01-24T08:58:10.158Z,84.21
2019-01-24T09:00:41.393Z,84.95
2019-01-24T09:03:17.315Z,85.12
2019-01-24T09:05:50.087Z,85.96
2019-01-24T09:08:21.311Z,85.86
2019-01-24T09:10:55.261Z,85.72
2019-01-24T09:13:26.999Z,85.07
2019-01-24T09:16:01.499Z,85.59
2019-01-24T09:18:34.636Z,86.31
2019-01-24T09:21:08.739Z,86.61
2019-01-24T09:23:41.914Z,85.50
2019-01-24T09:26:16.000Z,85.11
2019-01-24T09:28:47.981Z,84.89
2019-01-24T09:31:24.716Z,84.81
2019-01-24T09:34:03.063Z,84.29
2019-01-24T09:36:37.994Z,84.44
2019-01-24T09:39:10.808Z,84.36
2019-01-24T09:41:43.814Z,84.31
2019-01-24T09:44:15.544Z,83.51
2019-01-24T09:46:48.548Z,83.24
2019-01-24T09:49:24.130Z,82.90
2019-01-24T09:51:56.336Z,82.75
2019-01-24T09:54:27.562Z,83.58
2019-01-24T09:56:58.855Z,84.05
2019-01-24T09:59:30.077Z,84.04
2019-01-24T10:02:02.944Z,82.72
2019-01-24T10:04:36.807Z,82.84
2019-01-24T10:07:09.222Z,83.44
2019-01-24T10:10:15.823Z,83.49
2019-01-24T10:13:04.226Z,83.47
2019-01-24T10:15:35.909Z,82.76
2019-01-24T10:18:08.712Z,82.52
2019-01-24T10:20:40.319Z,82.35
2019-01-24T10:23:12.919Z,83.27
2019-01-24T10:25:44.676Z,82.49
2019-01-24T10:28:18.812Z,82.08
2019-01-24T10:30:51.789Z,82.52
2019-01-24T10:33:23.648Z,82.85
2019-01-24T10:35:57.681Z,82.76
2019-01-24T10:38:28.923Z,81.65
2019-01-24T10:41:03.253Z,81.83
2019-01-24T10:43:41.149Z,82.14
2019-01-24T10:46:12.801Z,82.02
2019-01-24T10:48:44.761Z,82.14
2019-01-24T10:51:17.796Z,81.92
2019-01-24T10:53:49.974Z,81.41
2019-01-24T10:56:25.487Z,80.48
2019-01-24T10:58:57.965Z,80.62
2019-01-24T11:01:29.181Z,80.33
2019-01-24T11:04:02.923Z,79.99
2019-01-24T11:06:34.117Z,79.96
2019-01-24T11:09:08.470Z,80.08
2019-01-24T11:11:41.510Z,80.95
2019-01-24T11:14:14.320Z,80.67
2019-01-24T11:16:47.087Z,80.14
2019-01-24T11:19:20.862Z,78.95
2019-01-24T11:21:54.075Z,78.83
2019-01-24T11:24:28.107Z,80.12
2019-01-24T11:27:02.052Z,80.50
2019-01-24T11:29:33.452Z,80.84
2019-01-24T11:32:04.788Z,80.97
2019-01-24T11:34:37.961Z,80.51
2019-01-24T11:37:09.253Z,79.81
2019-01-24T11:39:43.034Z,79.42
2019-01-24T11:42:14.992Z,79.38
2019-01-24T11:44:48.200Z,78.61
2019-01-24T11:47:22.109Z,79.16
2019-01-24T11:49:57.714Z,79.08
2019-01-24T11:52:30.162Z,79.38
2019-01-24T11:55:04.357Z,79.65
2019-01-24T11:57:38.171Z,78.46
2019-01-24T12:00:17.350Z,79.07
2019-01-24T12:02:49.274Z,78.36
2019-01-24T12:05:20.519Z,77.61
2019-01-24T12:07:54.205Z,78.17
2019-01-24T12:10:28.283Z,76.92
2019-01-24T12:13:03.695Z,77.12
2019-01-24T12:15:36.093Z,78.04
2019-01-24T12:18:09.193Z,79.16
2019-01-24T12:20:41.227Z,78.41
2019-01-24T12:23:15.231Z,79.22
2019-01-24T12:25:48.628Z,77.63
2019-01-24T12:28:22.492Z,78.11
2019-01-24T12:30:56.281Z,79.86
2019-01-24T12:33:27.802Z,79.97
2019-01-24T12:35:59.083Z,78.85
2019-01-24T12:38:30.310Z,79.17
2019-01-24T12:41:03.278Z,79.09
2019-01-24T12:43:40.289Z,79.64
2019-01-24T12:46:12.427Z,79.37
2019-01-24T12:48:47.377Z,79.00
2019-01-24T12:51:19.948Z,79.29
2019-01-24T12:53:52.810Z,79.58
2019-01-24T12:56:25.542Z,79.97
2019-01-24T12:59:02.841Z,80.35
2019-01-24T13:01:36.393Z,79.94
2019-01-24T13:04:10.308Z,80.04
2019-01-24T13:06:45.915Z,79.41
2019-01-24T13:09:18.992Z,79.81
2019-01-24T13:11:53.318Z,78.89
2019-01-24T13:14:28.699Z,78.68
2019-01-24T13:17:01.583Z,78.98
2019-01-24T13:19:33.586Z,78.25
2019-01-24T13:22:04.956Z,78.92
2019-01-24T13:34:45.585Z,78.12
2019-01-24T13:37:25.581Z,78.17
2019-01-24T13:39:53.636Z,77.40
2019-01-24T13:42:25.079Z,77.86
2019-01-24T13:44:56.977Z,79.10
2019-01-24T13:47:29.943Z,78.41
2019-01-24T13:50:05.227Z,78.39
2019-01-24T13:52:37.545Z,77.73
2019-01-24T13:55:09.563Z,77.53
2019-01-24T14:01:07.199Z,76.94
2019-01-24T14:03:57.966Z,77.55
2019-01-24T14:06:31.804Z,76.86
2019-01-24T14:09:08.207Z,77.99
2019-01-24T14:11:39.648Z,77.83
2019-01-24T14:14:13.018Z,77.73
2019-01-24T14:16:46.702Z,77.62
2019-01-24T14:19:18.811Z,76.41
2019-01-24T14:21:52.112Z,76.27
2019-01-24T14:24:25.806Z,77.85
2019-01-24T14:26:57.027Z,78.16
2019-01-24T14:29:29.804Z,78.64
2019-01-24T14:32:01.744Z,78.36
2019-01-24T14:34:34.900Z,78.37
2019-01-24T14:37:09.081Z,78.56
2019-01-24T14:39:41.128Z,79.00
2019-01-24T14:42:13.029Z,77.30
2019-01-24T14:44:45.843Z,78.39
2019-01-24T14:47:20.135Z,78.68
2019-01-24T14:49:52.041Z,77.35
2019-01-24T14:52:26.617Z,78.10
2019-01-24T14:55:00.264Z,77.85
2019-01-24T14:57:34.113Z,77.60
2019-01-24T15:00:20.661Z,77.02
2019-01-24T15:02:55.046Z,76.26
2019-01-24T15:05:26.642Z,77.30
2019-01-24T15:08:00.419Z,77.26
2019-01-24T15:10:38.299Z,77.58
2019-01-24T15:13:11.320Z,77.46
2019-01-24T15:15:45.241Z,78.28
2019-01-24T15:18:18.171Z,77.97
2019-01-24T15:20:51.142Z,77.83
2019-01-24T15:23:23.363Z,78.12
2019-01-24T15:25:56.195Z,78.39
2019-01-24T15:28:29.140Z,77.68
2019-01-24T15:31:03.278Z,78.36
2019-01-24T15:33:37.434Z,78.74
2019-01-24T15:36:08.699Z,78.83
2019-01-24T15:38:42.401Z,78.85
2019-01-24T15:41:14.226Z,78.48
2019-01-24T15:43:48.021Z,77.26
2019-01-24T15:46:21.230Z,78.25
2019-01-24T15:48:55.162Z,77.97
2019-01-24T15:51:30.959Z,78.08
2019-01-24T15:54:04.961Z,78.30
2019-01-24T15:56:39.762Z,78.79
2019-01-24T15:59:15.824Z,78.33
2019-01-24T16:01:48.090Z,77.81
2019-01-24T16:04:22.079Z,78.12
2019-01-24T16:06:54.540Z,78.89
2019-01-24T16:09:28.597Z,78.96
2019-01-24T16:12:01.221Z,79.78
2019-01-24T16:14:34.308Z,79.63
2019-01-24T16:17:13.835Z,79.04
2019-01-24T16:19:46.234Z,78.59
2019-01-24T16:22:20.354Z,78.35
2019-01-24T16:24:54.588Z,78.26
2019-01-24T16:27:27.931Z,78.36
2019-01-24T16:30:02.472Z,78.79
2019-01-24T16:32:35.194Z,78.34
2019-01-24T16:35:09.665Z,78.51
2019-01-24T16:37:42.417Z,78.95
2019-01-24T16:40:16.905Z,79.18
2019-01-24T16:42:51.133Z,79.86
2019-01-24T16:45:27.214Z,79.73
2019-01-24T16:48:01.371Z,79.37
2019-01-24T16:50:33.705Z,79.25
2019-01-24T16:53:06.445Z,79.49
2019-01-24T16:55:39.229Z,79.90
2019-01-24T16:58:12.533Z,79.14
2019-01-24T17:00:49.065Z,79.84
2019-01-24T17:03:23.150Z,79.89
2019-01-24T17:05:56.211Z,79.55
2019-01-24T17:08:29.398Z,80.24
2019-01-24T17:11:03.799Z,80.24
2019-01-24T17:13:38.614Z,79.80
2019-01-24T17:16:09.931Z,79.11
2019-01-24T17:18:43.697Z,78.87
2019-01-24T17:21:16.592Z,78.73
2019-01-24T17:23:47.819Z,79.27
2019-01-24T17:26:21.574Z,79.22
2019-01-24T17:28:57.132Z,79.48
2019-01-24T17:31:29.691Z,79.60
2019-01-24T17:37:29.960Z,79.79
2019-01-24T17:40:02.625Z,79.80
2019-01-24T17:42:34.602Z,79.66
2019-01-24T17:45:09.843Z,79.60
2019-01-24T17:47:41.812Z,79.59
2019-01-24T17:50:19.773Z,79.62
2019-01-24T17:52:55.428Z,79.39
2019-01-24T17:59:02.927Z,78.98
2019-01-24T18:01:42.273Z,78.87
2019-01-24T18:04:21.755Z,78.74
2019-01-24T18:06:53.658Z,78.56
2019-01-24T18:09:29.113Z,78.25
2019-01-24T18:12:04.068Z,78.36
2019-01-24T18:14:36.948Z,78.47
2019-01-24T18:17:09.728Z,78.77
2019-01-24T18:19:44.032Z,78.49
2019-01-24T18:22:15.782Z,77.64
2019-01-24T18:24:48.882Z,77.11
2019-01-24T18:27:23.218Z,77.99
2019-01-24T18:29:56.828Z,78.61
2019-01-24T18:32:28.342Z,78.35
2019-01-24T18:35:01.830Z,78.47
2019-01-24T18:37:35.811Z,78.82
2019-01-24T18:40:11.316Z,78.10
2019-01-24T18:42:43.859Z,78.26
2019-01-24T18:45:19.214Z,78.68
2019-01-24T18:47:51.996Z,78.25
2019-01-24T18:50:26.330Z,79.44
2019-01-24T18:52:59.934Z,80.01
2019-01-24T18:55:33.938Z,79.21
2019-01-24T18:58:08.263Z,79.61
2019-01-24T19:00:46.632Z,80.28
2019-01-24T19:03:19.238Z,80.60
2019-01-24T19:05:55.067Z,80.76
2019-01-24T19:08:27.439Z,80.80
2019-01-24T19:11:01.900Z,79.91
2019-01-24T19:13:34.346Z,79.99
2019-01-24T19:16:08.469Z,79.54
2019-01-24T19:18:42.685Z,80.29
2019-01-24T19:21:16.197Z,80.60
2019-01-24T19:23:48.545Z,81.04
2019-01-24T19:26:22.158Z,80.41
2019-01-24T19:28:57.824Z,79.70
2019-01-24T19:31:29.427Z,80.18
2019-01-24T19:34:02.803Z,80.76
2019-01-24T19:36:35.287Z,79.71
2019-01-24T19:39:10.115Z,80.06
2019-01-24T19:41:44.841Z,80.20
2019-01-24T19:44:18.863Z,80.46
2019-01-24T19:46:52.660Z,80.84
2019-01-24T19:49:25.419Z,81.16
2019-01-24T19:51:58.332Z,80.27
2019-01-24T19:54:29.600Z,80.65
2019-01-24T19:57:03.248Z,80.26
2019-01-24T19:59:38.754Z,80.46
2019-01-24T20:02:10.208Z,80.50
2019-01-24T20:04:44.046Z,80.49
2019-01-24T20:07:16.541Z,80.39
2019-01-24T20:09:52.036Z,80.88
2019-01-24T20:12:24.331Z,80.61
2019-01-24T20:14:58.259Z,81.02
2019-01-24T20:17:29.477Z,80.58
2019-01-24T20:20:03.618Z,79.68
2019-01-24T20:22:36.020Z,79.94
2019-01-24T20:25:11.407Z,79.56
2019-01-24T20:27:44.392Z,79.53
2019-01-24T20:30:20.113Z,80.08
2019-01-24T20:32:52.556Z,79.37
2019-01-24T20:35:38.085Z,79.14
2019-01-24T20:38:09.983Z,79.37
2019-01-24T20:40:44.277Z,79.31
2019-01-24T20:43:16.553Z,79.20
2019-01-24T20:45:49.390Z,77.87
2019-01-24T20:48:22.837Z,77.94
2019-01-24T20:50:56.524Z,78.68
2019-01-24T20:53:30.759Z,78.10
2019-01-24T20:56:02.831Z,78.20
2019-01-24T20:58:38.804Z,78.38
2019-01-24T21:01:10.383Z,78.44
2019-01-24T21:03:43.525Z,77.75
2019-01-24T21:06:17.423Z,77.33
2019-01-24T21:08:51.638Z,78.22
2019-01-24T21:11:23.007Z,77.72
2019-01-24T21:13:56.859Z,77.71
2019-01-24T21:16:30.737Z,77.82
2019-01-24T21:19:02.271Z,77.01
2019-01-24T21:21:36.774Z,77.67
2019-01-24T21:24:09.701Z,77.37
2019-01-24T21:26:43.693Z,77.05
2019-01-24T21:29:16.642Z,77.88
2019-01-24T21:31:48.576Z,77.34
2019-01-24T21:34:22.490Z,77.51
2019-01-24T21:36:53.813Z,76.87
2019-01-24T21:39:27.701Z,77.81
2019-01-24T21:42:01.766Z,77.68
2019-01-24T21:44:33.070Z,77.48
2019-01-24T21:47:07.358Z,77.17
2019-01-24T21:49:39.949Z,76.72
2019-01-24T21:52:14.741Z,77.13
2019-01-24T21:54:46.711Z,77.38
2019-01-24T21:57:20.500Z,77.29
2019-01-24T21:59:57.033Z,76.86
2019-01-24T22:02:30.882Z,77.39
2019-01-24T22:05:04.005Z,76.63
2019-01-24T22:07:35.322Z,76.29
2019-01-24T22:10:08.489Z,76.99
2019-01-24T22:12:40.964Z,76.28
2019-01-24T22:15:15.177Z,76.26
2019-01-24T22:17:48.443Z,76.45
2019-01-24T22:20:22.829Z,76.25
2019-01-24T22:22:57.786Z,76.91
2019-01-24T22:25:32.762Z,77.46
2019-01-24T22:28:08.069Z,77.31
2019-01-24T22:30:56.348Z,78.11
2019-01-24T22:33:30.428Z,76.53
2019-01-24T22:36:03.275Z,75.81
2019-01-24T22:38:34.912Z,75.83
2019-01-24T22:41:09.179Z,77.13
2019-01-24T22:43:43.043Z,77.67
2019-01-24T22:46:17.573Z,77.61
2019-01-24T22:48:51.129Z,77.58
2019-01-24T22:51:22.365Z,77.56
2019-01-24T22:53:55.043Z,76.99
2019-01-24T22:56:26.934Z,76.73
2019-01-24T22:59:02.658Z,76.40
2019-01-24T23:02:09.951Z,76.03
2019-01-24T23:04:45.009Z,76.24
2019-01-24T23:07:20.202Z,77.33
2019-01-24T23:09:53.614Z,76.10
2019-01-24T23:12:29.168Z,76.40
2019-01-24T23:15:01.049Z,77.01
2019-01-24T23:17:32.970Z,76.39
2019-01-24T23:20:09.547Z,76.67
2019-01-24T23:22:41.550Z,76.69
2019-01-24T23:25:14.437Z,76.77
2019-01-24T23:27:48.850Z,77.24
2019-01-24T23:30:22.699Z,77.41
2019-01-24T23:32:55.895Z,77.09
2019-01-24T23:35:29.292Z,77.21
2019-01-24T23:38:01.597Z,76.89
2019-01-24T23:40:35.721Z,75.74
2019-01-24T23:43:10.729Z,75.76
2019-01-24T23:45:43.422Z,76.42
2019-01-24T23:48:16.887Z,76.48
2019-01-24T23:50:50.651Z,76.82
2019-01-24T23:53:45.401Z,75.99
2019-01-24T23:56:20.938Z,76.26
2019-01-24T23:58:52.145Z,76.33
